createdAt,value
2018-06-15T00:00:21.912Z,10.13
2018-06-15T00:02:55.708Z,10.27
2018-06-15T00:05:24.238Z,9.97
2018-06-15T00:07:52.776Z,8.83
2018-06-15T00:10:21.572Z,9.70
2018-06-15T00:12:50.073Z,9.27
2018-06-15T00:15:18.618Z,9.57
2018-06-15T00:17:47.184Z,9.67
2018-06-15T00:20:15.742Z,11.40
2018-06-15T00:22:44.276Z,10.40
2018-06-15T00:25:12.838Z,11.77
2018-06-15T00:27:41.935Z,11.73
2018-06-15T00:30:10.485Z,11.23
2018-06-15T00:32:39.029Z,10.07
2018-06-15T00:35:07.661Z,11.67
2018-06-15T00:37:36.181Z,11.90
2018-06-15T00:40:04.830Z,11.47
2018-06-15T00:42:33.325Z,10.73
2018-06-15T00:45:01.857Z,10.37
2018-06-15T00:47:30.360Z,13.77
2018-06-15T00:49:58.900Z,13.23
2018-06-15T00:52:27.400Z,11.03
2018-06-15T00:54:55.984Z,12.18
2018-06-15T00:57:35.624Z,11.07
2018-06-15T01:00:04.248Z,10.83
2018-06-15T01:02:32.758Z,10.82
2018-06-15T01:05:01.288Z,11.93
2018-06-15T01:07:29.784Z,13.00
2018-06-15T01:09:58.364Z,13.60
2018-06-15T01:12:26.872Z,12.85
2018-06-15T01:14:55.405Z,10.57
2018-06-15T01:17:23.979Z,10.43
2018-06-15T01:19:52.473Z,9.43
2018-06-15T01:22:21.005Z,9.73
2018-06-15T01:24:49.576Z,10.13
2018-06-15T01:27:18.129Z,12.63
2018-06-15T01:29:46.933Z,9.50
2018-06-15T01:32:15.457Z,10.50
2018-06-15T01:34:43.958Z,9.47
2018-06-15T01:37:12.496Z,9.63
2018-06-15T01:39:42.097Z,9.73
2018-06-15T01:42:10.649Z,10.07
2018-06-15T01:44:39.181Z,10.23
2018-06-15T01:47:07.736Z,10.77
2018-06-15T01:49:36.241Z,10.40
2018-06-15T01:52:04.792Z,8.60
2018-06-15T01:54:33.293Z,8.93
2018-06-15T01:57:01.837Z,9.47
2018-06-15T01:59:30.397Z,8.23
2018-06-15T02:01:58.942Z,8.67
2018-06-15T02:04:27.437Z,10.40
2018-06-15T02:06:55.981Z,9.63
2018-06-15T02:09:24.485Z,9.27
2018-06-15T02:11:53.077Z,10.75
2018-06-15T02:14:21.713Z,9.45
2018-06-15T02:16:50.268Z,9.47
2018-06-15T02:19:18.763Z,9.27
2018-06-15T02:21:47.340Z,9.80
2018-06-15T02:24:15.844Z,9.17
2018-06-15T02:26:44.373Z,9.50
2018-06-15T02:29:12.888Z,8.97
2018-06-15T02:31:42.285Z,8.73
2018-06-15T02:34:10.792Z,8.87
2018-06-15T02:36:39.345Z,9.03
2018-06-15T02:39:09.545Z,9.17
2018-06-15T02:41:38.148Z,9.07
2018-06-15T02:44:06.896Z,8.90
2018-06-15T02:46:35.434Z,9.60
2018-06-15T02:49:03.969Z,9.03
2018-06-15T02:51:32.569Z,9.03
2018-06-15T02:54:01.086Z,8.30
2018-06-15T02:56:29.689Z,8.13
2018-06-15T02:58:58.373Z,8.37
2018-06-15T03:01:27.049Z,8.30
2018-06-15T03:03:55.704Z,9.13
2018-06-15T03:06:24.469Z,8.15
2018-06-15T03:08:53.080Z,8.37
2018-06-15T03:11:21.604Z,10.37
2018-06-15T03:13:50.474Z,7.83
2018-06-15T03:16:18.992Z,8.63
2018-06-15T03:18:47.560Z,11.23
2018-06-15T03:21:16.081Z,9.73
2018-06-15T03:23:44.646Z,11.10
2018-06-15T03:26:13.164Z,9.90
2018-06-15T03:28:42.620Z,9.13
2018-06-15T03:31:11.144Z,8.20
2018-06-15T03:33:39.687Z,9.13
2018-06-15T03:36:08.230Z,8.57
2018-06-15T03:38:37.013Z,9.00
2018-06-15T03:41:05.629Z,9.10
2018-06-15T03:43:34.213Z,10.20
2018-06-15T03:46:02.796Z,9.03
2018-06-15T03:48:31.382Z,9.48
2018-06-15T03:50:59.963Z,8.73
2018-06-15T03:53:28.530Z,9.83
2018-06-15T03:55:57.089Z,10.90
2018-06-15T03:58:25.659Z,10.47
2018-06-15T04:00:54.216Z,10.80
2018-06-15T04:03:22.827Z,12.57
2018-06-15T04:05:51.369Z,11.08
2018-06-15T04:08:20.211Z,10.53
2018-06-15T04:10:48.745Z,11.15
2018-06-15T04:13:17.413Z,11.87
2018-06-15T04:15:45.916Z,10.73
2018-06-15T04:18:14.473Z,11.90
2018-06-15T04:20:43.458Z,10.68
2018-06-15T04:23:12.035Z,12.53
2018-06-15T04:25:40.565Z,11.40
2018-06-15T04:28:09.133Z,14.83
2018-06-15T04:30:37.658Z,11.73
2018-06-15T04:33:06.212Z,13.43
2018-06-15T04:35:34.752Z,12.07
2018-06-15T04:38:03.328Z,12.70
2018-06-15T04:40:31.849Z,10.73
2018-06-15T04:43:00.428Z,14.18
2018-06-15T04:45:28.968Z,13.98
2018-06-15T04:47:57.529Z,15.20
2018-06-15T04:50:26.062Z,20.32
2018-06-15T04:52:54.625Z,15.47
2018-06-15T04:55:23.176Z,15.18
2018-06-15T04:57:51.717Z,17.57
2018-06-15T05:00:20.320Z,18.80
2018-06-15T05:02:48.849Z,17.20
2018-06-15T05:05:17.434Z,17.00
2018-06-15T05:07:46.216Z,17.10
2018-06-15T05:10:14.776Z,16.87
2018-06-15T05:12:43.741Z,20.40
2018-06-15T05:15:12.313Z,18.47
2018-06-15T05:17:40.900Z,20.07
2018-06-15T05:20:09.480Z,17.63
2018-06-15T05:22:38.016Z,19.90
2018-06-15T05:25:08.702Z,18.25
2018-06-15T05:27:37.228Z,20.70
2018-06-15T05:30:05.865Z,20.33
2018-06-15T05:32:34.412Z,22.03
2018-06-15T05:35:02.997Z,21.77
2018-06-15T05:37:31.569Z,21.25
2018-06-15T05:40:00.134Z,19.57
2018-06-15T05:42:28.803Z,21.45
2018-06-15T05:44:57.376Z,19.48
2018-06-15T05:47:25.928Z,20.73
2018-06-15T05:49:54.505Z,21.40
2018-06-15T05:52:23.057Z,22.07
2018-06-15T05:54:51.675Z,21.40
2018-06-15T05:57:20.490Z,20.17
2018-06-15T05:59:53.469Z,22.20
2018-06-15T06:02:27.680Z,21.07
2018-06-15T06:04:58.700Z,27.65
2018-06-15T06:07:41.297Z,24.57
2018-06-15T06:10:09.833Z,23.07
2018-06-15T06:12:38.340Z,22.13
2018-06-15T06:15:06.917Z,22.27
2018-06-15T06:17:35.424Z,20.73
2018-06-15T06:20:04.136Z,21.63
2018-06-15T06:22:32.642Z,28.60
2018-06-15T06:25:01.231Z,21.95
2018-06-15T06:27:29.778Z,23.27
2018-06-15T06:29:58.357Z,24.87
2018-06-15T06:32:27.727Z,25.83
2018-06-15T06:34:56.293Z,24.90
2018-06-15T06:37:24.921Z,24.97
2018-06-15T06:39:53.463Z,115.63
2018-06-15T06:42:22.022Z,25.07
2018-06-15T06:44:51.017Z,22.53
2018-06-15T06:47:19.571Z,21.65
2018-06-15T06:49:48.135Z,21.00
2018-06-15T06:52:17.176Z,19.13
2018-06-15T06:54:46.456Z,20.53
2018-06-15T06:57:15.015Z,20.82
2018-06-15T06:59:44.771Z,23.87
2018-06-15T07:02:14.077Z,23.57
2018-06-15T07:10:24.698Z,22.23
2018-06-15T07:12:53.219Z,22.05
2018-06-15T07:15:23.529Z,22.93
2018-06-15T07:17:52.204Z,21.90
2018-06-15T07:20:20.944Z,23.17
2018-06-15T07:22:49.669Z,21.27
2018-06-15T07:25:18.268Z,20.80
2018-06-15T07:27:47.104Z,20.47
2018-06-15T07:30:15.913Z,23.10
2018-06-15T07:32:44.712Z,22.60
2018-06-15T07:35:14.145Z,20.30
2018-06-15T07:37:42.683Z,19.60
2018-06-15T07:40:11.229Z,21.13
2018-06-15T07:42:41.061Z,21.33
2018-06-15T07:45:10.538Z,20.70
2018-06-15T07:47:42.885Z,21.90
2018-06-15T07:50:11.711Z,23.20
2018-06-15T07:52:40.233Z,22.70
2018-06-15T07:55:08.772Z,23.23
2018-06-15T07:57:37.453Z,23.97
2018-06-15T08:00:06.346Z,19.00
2018-06-15T08:02:34.896Z,18.83
2018-06-15T08:05:03.407Z,19.50
2018-06-15T08:07:31.960Z,18.90
2018-06-15T08:10:00.497Z,19.20
2018-06-15T08:12:29.072Z,18.67
2018-06-15T08:14:57.640Z,18.33
2018-06-15T08:17:26.180Z,20.87
2018-06-15T08:19:54.703Z,17.98
2018-06-15T08:22:23.249Z,18.97
2018-06-15T08:24:51.757Z,19.00
2018-06-15T08:27:20.384Z,22.52
2018-06-15T08:29:48.897Z,19.53
2018-06-15T08:32:17.449Z,17.90
2018-06-15T08:34:45.972Z,17.60
2018-06-15T08:37:14.521Z,17.30
2018-06-15T08:39:51.476Z,16.13
2018-06-15T08:42:20.695Z,15.13
2018-06-15T08:44:49.381Z,13.90
2018-06-15T08:47:17.976Z,13.00
2018-06-15T08:49:46.761Z,12.03
2018-06-15T08:52:15.300Z,14.37
2018-06-15T08:54:44.396Z,11.28
2018-06-15T08:57:13.092Z,11.70
2018-06-15T08:59:41.776Z,10.43
2018-06-15T09:02:10.323Z,9.93
2018-06-15T09:04:39.259Z,11.57
2018-06-15T09:07:07.821Z,11.03
2018-06-15T09:09:36.372Z,10.25
2018-06-15T09:12:05.596Z,10.33
2018-06-15T09:14:34.121Z,9.97
2018-06-15T09:17:02.709Z,11.03
2018-06-15T09:19:31.239Z,10.50
2018-06-15T09:22:00.885Z,10.33
2018-06-15T09:24:29.670Z,9.23
2018-06-15T09:26:58.220Z,9.07
2018-06-15T09:29:26.736Z,8.80
2018-06-15T09:31:55.778Z,8.50
2018-06-15T09:34:26.793Z,7.50
2018-06-15T09:36:55.411Z,8.73
2018-06-15T09:39:27.124Z,7.37
2018-06-15T09:41:56.005Z,7.60
2018-06-15T09:44:24.534Z,7.72
2018-06-15T09:46:53.090Z,7.33
2018-06-15T09:49:21.780Z,6.57
2018-06-15T09:51:50.337Z,6.43
2018-06-15T09:54:18.881Z,7.00
2018-06-15T09:56:47.893Z,7.03
2018-06-15T09:59:16.453Z,6.17
2018-06-15T10:01:45.007Z,6.40
2018-06-15T10:04:20.852Z,6.00
2018-06-15T10:06:49.449Z,6.83
2018-06-15T10:09:27.499Z,6.83
2018-06-15T10:11:56.416Z,8.37
2018-06-15T10:14:24.940Z,6.40
2018-06-15T10:16:53.465Z,6.83
2018-06-15T10:19:22.237Z,8.30
2018-06-15T10:21:50.805Z,7.00
2018-06-15T10:24:19.344Z,7.67
2018-06-15T10:26:47.845Z,6.80
2018-06-15T10:29:16.384Z,7.67
2018-06-15T10:31:44.881Z,7.43
2018-06-15T10:34:16.966Z,7.47
2018-06-15T10:37:01.659Z,7.83
2018-06-15T10:39:40.947Z,7.93
2018-06-15T10:42:23.834Z,8.10
2018-06-15T10:45:02.807Z,6.83
2018-06-15T10:47:44.940Z,7.20
2018-06-15T10:50:25.558Z,7.67
2018-06-15T10:53:08.879Z,8.17
2018-06-15T10:55:51.419Z,7.23
2018-06-15T10:58:31.675Z,8.88
2018-06-15T11:01:10.718Z,9.08
2018-06-15T11:03:39.737Z,8.23
2018-06-15T11:06:08.276Z,8.07
2018-06-15T11:08:36.840Z,7.87
2018-06-15T11:11:08.978Z,8.20
2018-06-15T11:13:37.602Z,7.43
2018-06-15T11:16:06.312Z,8.33
2018-06-15T11:18:35.188Z,8.30
2018-06-15T11:21:04.040Z,7.87
2018-06-15T11:23:32.574Z,7.92
2018-06-15T11:26:01.078Z,7.22
2018-06-15T11:28:29.609Z,6.47
2018-06-15T11:30:58.135Z,6.07
2018-06-15T11:33:26.653Z,6.40
2018-06-15T11:35:55.205Z,6.03
2018-06-15T11:38:23.744Z,7.97
2018-06-15T11:40:52.241Z,5.23
2018-06-15T11:43:20.788Z,6.30
2018-06-15T11:45:49.574Z,6.07
2018-06-15T11:48:18.112Z,7.23
2018-06-15T11:50:46.678Z,5.43
2018-06-15T11:53:15.324Z,4.87
2018-06-15T11:55:43.884Z,5.07
2018-06-15T11:58:20.025Z,5.00
2018-06-15T12:00:48.708Z,4.90
2018-06-15T12:03:17.216Z,4.97
2018-06-15T12:05:45.791Z,5.07
2018-06-15T12:08:15.540Z,5.13
2018-06-15T12:10:44.096Z,6.43
2018-06-15T12:13:12.600Z,7.13
2018-06-15T12:15:41.460Z,6.60
2018-06-15T12:18:10.275Z,6.20
2018-06-15T12:20:38.812Z,6.10
2018-06-15T12:23:07.317Z,5.83
2018-06-15T12:25:35.843Z,6.23
2018-06-15T12:28:04.456Z,8.70
2018-06-15T12:30:33.259Z,6.75
2018-06-15T12:33:03.957Z,7.53
2018-06-15T12:35:32.554Z,7.40
2018-06-15T12:38:01.061Z,9.23
2018-06-15T12:40:30.583Z,6.23
2018-06-15T12:42:59.085Z,5.67
2018-06-15T12:45:28.028Z,5.53
2018-06-15T12:47:56.542Z,5.62
2018-06-15T12:50:27.399Z,6.97
2018-06-15T12:52:56.760Z,7.93
2018-06-15T12:55:25.301Z,10.50
2018-06-15T12:57:53.804Z,7.63
2018-06-15T13:00:24.224Z,9.23
2018-06-15T13:02:52.725Z,8.13
2018-06-15T13:05:21.252Z,9.47
2018-06-15T13:07:50.207Z,7.20
2018-06-15T13:10:20.532Z,12.30
2018-06-15T13:12:49.805Z,9.73
2018-06-15T13:15:18.356Z,10.37
2018-06-15T13:17:48.779Z,7.97
2018-06-15T13:20:17.449Z,8.30
2018-06-15T13:22:46.909Z,7.00
2018-06-15T13:25:15.936Z,7.65
2018-06-15T13:27:45.424Z,7.30
2018-06-15T13:30:13.954Z,6.90
2018-06-15T13:32:42.500Z,5.30
2018-06-15T13:35:11.009Z,4.70
2018-06-15T13:37:39.524Z,5.30
2018-06-15T13:40:08.052Z,5.57
2018-06-15T13:42:36.556Z,5.37
2018-06-15T13:45:05.849Z,7.17
2018-06-15T13:47:45.868Z,4.80
2018-06-15T13:50:15.609Z,5.28
2018-06-15T13:52:46.244Z,5.57
2018-06-15T13:55:15.569Z,6.50
2018-06-15T13:57:44.089Z,5.83
2018-06-15T14:00:12.715Z,5.80
2018-06-15T14:02:41.264Z,5.77
2018-06-15T14:05:09.794Z,5.83
2018-06-15T14:07:38.344Z,6.00
2018-06-15T14:10:06.868Z,5.20
2018-06-15T14:12:35.418Z,6.00
2018-06-15T14:15:04.077Z,5.17
2018-06-15T14:17:32.626Z,4.03
2018-06-15T14:20:01.225Z,4.57
2018-06-15T14:22:29.772Z,4.95
2018-06-15T14:24:58.307Z,7.23
2018-06-15T14:27:26.863Z,5.23
2018-06-15T14:29:55.373Z,5.27
2018-06-15T14:32:23.912Z,5.80
2018-06-15T14:34:52.429Z,5.85
2018-06-15T14:37:20.984Z,6.43
2018-06-15T14:39:49.525Z,6.23
2018-06-15T14:42:18.081Z,6.60
2018-06-15T14:44:46.612Z,6.97
2018-06-15T14:47:15.804Z,6.33
2018-06-15T14:49:44.392Z,7.07
2018-06-15T14:52:12.934Z,6.83
2018-06-15T14:54:41.465Z,7.10
2018-06-15T14:57:10.009Z,6.00
2018-06-15T14:59:38.574Z,6.00
2018-06-15T15:02:07.177Z,6.47
2018-06-15T15:04:35.777Z,5.63
2018-06-15T15:07:04.323Z,6.10
2018-06-15T15:09:32.834Z,6.67
2018-06-15T15:12:01.373Z,6.97
2018-06-15T15:14:29.877Z,5.60
2018-06-15T15:16:58.417Z,5.97
2018-06-15T15:19:26.931Z,5.83
2018-06-15T15:21:55.471Z,5.30
2018-06-15T15:24:23.972Z,5.90
2018-06-15T15:26:52.509Z,5.60
2018-06-15T15:29:21.017Z,5.30
2018-06-15T15:31:49.607Z,5.37
2018-06-15T15:34:18.105Z,5.07
2018-06-15T15:36:46.904Z,4.80
2018-06-15T15:39:15.897Z,4.58
2018-06-15T15:41:44.434Z,3.93
2018-06-15T15:44:12.936Z,4.00
2018-06-15T15:46:41.493Z,4.60
2018-06-15T15:49:09.997Z,4.43
2018-06-15T15:51:38.506Z,6.13
2018-06-15T15:54:07.040Z,4.40
2018-06-15T15:56:35.553Z,4.00
2018-06-15T15:59:04.152Z,4.50
2018-06-15T16:01:32.708Z,4.40
2018-06-15T16:04:01.260Z,3.72
2018-06-15T16:06:29.782Z,3.93
2018-06-15T16:08:58.325Z,4.23
2018-06-15T16:11:26.849Z,4.10
2018-06-15T16:13:55.400Z,3.87
2018-06-15T16:16:24.017Z,3.67
2018-06-15T16:18:52.566Z,3.70
2018-06-15T16:21:21.090Z,4.23
2018-06-15T16:23:49.648Z,4.03
2018-06-15T16:26:18.187Z,4.10
2018-06-15T16:28:46.737Z,3.70
2018-06-15T16:31:16.059Z,4.53
2018-06-15T16:33:44.621Z,4.40
2018-06-15T16:36:13.174Z,4.83
2018-06-15T16:38:41.760Z,5.33
2018-06-15T16:41:10.364Z,7.73
2018-06-15T16:43:38.932Z,4.87
2018-06-15T16:46:07.524Z,5.23
2018-06-15T16:48:36.089Z,5.50
2018-06-15T16:51:04.645Z,5.23
2018-06-15T16:53:33.205Z,5.43
2018-06-15T16:56:01.722Z,5.20
2018-06-15T16:58:30.276Z,5.77
2018-06-15T17:00:58.808Z,4.60
2018-06-15T17:03:28.544Z,5.30
2018-06-15T17:06:04.276Z,4.40
2018-06-15T17:08:43.433Z,4.77
2018-06-15T17:11:17.921Z,5.10
2018-06-15T17:13:56.178Z,4.77
2018-06-15T17:16:38.132Z,4.97
2018-06-15T17:19:12.592Z,5.03
2018-06-15T17:21:46.008Z,5.27
2018-06-15T17:24:22.848Z,5.00
2018-06-15T17:26:58.117Z,4.75
2018-06-15T17:29:35.930Z,5.07
2018-06-15T17:32:10.576Z,6.30
2018-06-15T17:34:39.749Z,4.67
2018-06-15T17:37:08.261Z,5.30
2018-06-15T17:39:36.790Z,7.90
2018-06-15T17:42:05.348Z,4.90
2018-06-15T17:44:33.902Z,5.27
2018-06-15T17:47:03.856Z,5.23
2018-06-15T17:49:35.266Z,5.60
2018-06-15T17:52:05.124Z,5.20
2018-06-15T17:54:36.369Z,5.60
2018-06-15T17:57:07.757Z,4.67
2018-06-15T17:59:37.856Z,5.17
2018-06-15T18:02:11.073Z,5.43
2018-06-15T18:04:40.954Z,15.97
2018-06-15T18:07:10.994Z,24.30
2018-06-15T18:09:40.177Z,6.23
2018-06-15T18:12:09.532Z,4.83
2018-06-15T18:14:39.971Z,5.77
2018-06-15T18:17:10.818Z,4.90
2018-06-15T18:19:40.353Z,5.53
2018-06-15T18:22:11.073Z,5.37
2018-06-15T18:24:41.395Z,5.33
2018-06-15T18:27:10.694Z,5.83
2018-06-15T18:29:39.714Z,5.60
2018-06-15T18:32:09.056Z,5.60
2018-06-15T18:34:38.608Z,5.73
2018-06-15T18:37:09.537Z,5.30
2018-06-15T18:39:38.749Z,5.53
2018-06-15T18:42:08.027Z,5.80
2018-06-15T18:44:37.613Z,5.63
2018-06-15T18:47:11.234Z,6.30
2018-06-15T18:49:40.438Z,5.77
2018-06-15T18:52:09.261Z,7.23
2018-06-15T18:54:41.499Z,6.20
2018-06-15T18:57:12.030Z,6.60
2018-06-15T18:59:42.179Z,6.40
2018-06-15T19:02:11.211Z,6.50
2018-06-15T19:04:42.667Z,6.53
2018-06-15T19:07:12.748Z,6.30
2018-06-15T19:09:43.229Z,7.47
2018-06-15T19:12:14.045Z,6.70
2018-06-15T19:14:45.485Z,6.43
2018-06-15T19:17:37.669Z,6.03
2018-06-15T19:20:06.936Z,7.33
2018-06-15T19:22:37.277Z,6.40
2018-06-15T19:25:06.232Z,7.33
2018-06-15T19:27:35.515Z,6.50
2018-06-15T19:30:06.852Z,7.13
2018-06-15T19:32:35.796Z,6.53
2018-06-15T19:35:06.849Z,7.10
2018-06-15T19:37:36.486Z,6.63
2018-06-15T19:40:10.273Z,7.67
2018-06-15T19:42:42.815Z,7.90
2018-06-15T19:45:11.764Z,8.17
2018-06-15T19:47:45.626Z,8.90
2018-06-15T19:50:15.407Z,8.73
2018-06-15T19:52:44.347Z,9.27
2018-06-15T19:55:15.212Z,10.53
2018-06-15T19:57:43.966Z,8.43
2018-06-15T20:00:12.513Z,9.73
2018-06-15T20:02:41.039Z,10.67
2018-06-15T20:05:10.926Z,8.93
2018-06-15T20:07:39.488Z,9.03
2018-06-15T20:10:08.556Z,8.10
2018-06-15T20:12:38.448Z,8.80
2018-06-15T20:15:07.056Z,8.50
2018-06-15T20:17:35.569Z,8.47
2018-06-15T20:20:04.176Z,8.03
2018-06-15T20:22:32.706Z,9.03
2018-06-15T20:25:02.748Z,8.57
2018-06-15T20:27:31.316Z,8.28
2018-06-15T20:29:59.912Z,7.83
2018-06-15T20:32:28.434Z,8.70
2018-06-15T20:34:57.099Z,9.50
2018-06-15T20:37:25.621Z,8.55
2018-06-15T20:39:58.960Z,7.40
2018-06-15T20:42:27.621Z,8.03
2018-06-15T20:45:00.657Z,8.57
2018-06-15T20:47:29.172Z,7.97
2018-06-15T20:49:59.840Z,8.95
2018-06-15T20:52:28.373Z,8.33
2018-06-15T20:54:56.939Z,9.17
2018-06-15T20:57:27.251Z,9.03
2018-06-15T21:00:00.544Z,8.70
2018-06-15T21:02:34.308Z,7.83
2018-06-15T21:05:03.072Z,8.93
2018-06-15T21:07:35.838Z,8.43
2018-06-15T21:10:05.005Z,8.90
2018-06-15T21:12:35.080Z,8.47
2018-06-15T21:15:04.632Z,8.60
2018-06-15T21:17:33.762Z,9.10
2018-06-15T21:20:03.833Z,8.60
2018-06-15T21:22:33.659Z,8.70
2018-06-15T21:25:05.473Z,11.73
2018-06-15T21:27:36.925Z,7.90
2018-06-15T21:30:06.748Z,8.53
2018-06-15T21:32:36.940Z,9.10
2018-06-15T21:35:07.250Z,9.63
2018-06-15T21:37:38.056Z,8.20
2018-06-15T21:40:07.735Z,8.13
2018-06-15T21:42:37.050Z,8.27
2018-06-15T21:45:05.865Z,10.80
2018-06-15T21:47:36.465Z,9.77
2018-06-15T21:50:08.528Z,11.03
2018-06-15T21:52:38.812Z,8.87
2018-06-15T21:55:09.517Z,8.80
2018-06-15T21:57:39.600Z,8.83
2018-06-15T22:00:12.219Z,8.97
2018-06-15T22:02:43.270Z,10.10
2018-06-15T22:05:16.062Z,8.40
2018-06-15T22:07:46.926Z,9.50
2018-06-15T22:10:17.173Z,9.60
2018-06-15T22:12:48.767Z,8.67
2018-06-15T22:15:21.075Z,9.60
2018-06-15T22:17:51.249Z,10.03
2018-06-15T22:20:20.276Z,9.20
2018-06-15T22:22:50.029Z,9.93
2018-06-15T22:25:21.446Z,10.60
2018-06-15T22:27:51.724Z,11.97
2018-06-15T22:30:22.018Z,10.07
2018-06-15T22:32:52.347Z,10.83
2018-06-15T22:35:23.552Z,11.30
2018-06-15T22:37:53.040Z,13.20
2018-06-15T22:40:23.344Z,13.33
2018-06-15T22:42:53.479Z,13.30
2018-06-15T22:45:24.301Z,13.70
2018-06-15T22:47:55.147Z,13.48
2018-06-15T22:50:23.725Z,11.55
2018-06-15T22:52:52.372Z,11.97
2018-06-15T22:55:20.944Z,13.73
2018-06-15T22:57:49.625Z,12.47
2018-06-15T23:00:19.245Z,15.00
2018-06-15T23:02:48.584Z,11.70
2018-06-15T23:05:18.061Z,11.03
2018-06-15T23:07:47.788Z,12.33
2018-06-15T23:10:16.313Z,11.27
2018-06-15T23:12:44.848Z,12.13
2018-06-15T23:15:13.728Z,11.93
2018-06-15T23:17:42.281Z,11.80
2018-06-15T23:20:10.790Z,11.37
2018-06-15T23:22:39.424Z,11.87
2018-06-15T23:25:07.941Z,12.23
2018-06-15T23:27:36.566Z,13.40
2018-06-15T23:30:05.456Z,13.27
2018-06-15T23:32:33.997Z,11.05
2018-06-15T23:35:02.507Z,10.93
2018-06-15T23:37:31.049Z,12.15
2018-06-15T23:39:59.552Z,11.53
2018-06-15T23:42:28.089Z,11.38
2018-06-15T23:44:56.605Z,11.43
2018-06-15T23:47:25.144Z,11.13
2018-06-15T23:49:53.641Z,12.53
2018-06-15T23:52:22.181Z,9.33
2018-06-15T23:54:50.690Z,12.53
2018-06-15T23:57:19.228Z,12.77
2018-06-15T23:59:48.209Z,11.45
